Time;durP1;ratioP1;P1;durP2;ratioP2;P2;SDS_P1;SDS_P2;PMS_P1;PMS_P2;Temp;Humidity;BMP_temperature;BMP_pressure;BME280_temperature;BME280_humidity;BME280_pressure;Samples;Min_cycle;Max_cycle;Signal;HPM_P1;HPM_P2
2022/08/03 00:02:29;;;;;;;7.10;6.25;;;;;;;19.25;100.00;100009.82;1779102;78;21062;-58
2022/08/03 00:04:58;;;;;;;9.95;6.20;;;;;;;19.26;100.00;100008.72;1764036;81;21010;-58
2022/08/03 00:07:28;;;;;;;7.35;5.45;;;;;;;19.26;100.00;100010.11;1763999;81;21047;-58
2022/08/03 00:09:58;;;;;;;6.50;5.58;;;;;;;19.25;100.00;100015.38;1764428;81;21034;-59
2022/08/03 00:12:27;;;;;;;8.63;5.83;;;;;;;19.25;100.00;100010.37;1730207;81;21077;-58
2022/08/03 00:14:56;;;;;;;7.62;5.75;;;;;;;19.25;100.00;100011.20;1729810;81;21045;-59
2022/08/03 00:17:26;;;;;;;8.13;5.58;;;;;;;19.26;100.00;100003.72;1748427;81;21047;-58
2022/08/03 00:19:55;;;;;;;7.00;5.67;;;;;;;19.24;100.00;100005.37;1760582;81;21050;-57
2022/08/03 00:22:25;;;;;;;7.37;5.72;;;;;;;19.22;99.97;99997.84;1793917;80;21086;-57
2022/08/03 00:24:55;;;;;;;8.05;6.00;;;;;;;19.24;100.00;100001.20;1796024;80;21085;-57
2022/08/03 00:27:25;;;;;;;8.43;5.60;;;;;;;19.26;100.00;99993.44;1789734;80;21014;-58
2022/08/03 00:29:55;;;;;;;8.10;5.37;;;;;;;19.26;100.00;99997.61;1788445;80;21041;-59
2022/08/03 00:32:27;;;;;;;6.47;5.20;;;;;;;19.28;100.00;99991.78;1787911;80;20978;-58
2022/08/03 00:34:56;;;;;;;7.90;5.28;;;;;;;19.27;100.00;99995.67;1788359;80;21435;-57
2022/08/03 00:37:27;;;;;;;8.58;5.30;;;;;;;19.26;100.00;99992.61;1786500;80;21065;-58
2022/08/03 00:39:58;;;;;;;8.40;5.42;;;;;;;19.26;100.00;99995.38;1766410;81;21056;-58
2022/08/03 00:42:29;;;;;;;8.43;5.05;;;;;;;19.26;100.00;99999.55;1769043;81;21047;-58
2022/08/03 00:44:58;;;;;;;8.73;5.12;;;;;;;19.27;100.00;99997.05;1769289;81;21075;-58
2022/08/03 00:47:27;;;;;;;7.42;4.80;;;;;;;19.26;99.04;99991.21;1778671;80;21039;-57
2022/08/03 00:49:56;;;;;;;6.90;5.03;;;;;;;19.26;99.07;100000.38;1776386;80;21431;-58
2022/08/03 00:52:27;;;;;;;5.58;4.92;;;;;;;19.26;99.31;99996.22;1774751;80;21094;-58
2022/08/03 00:54:57;;;;;;;10.90;5.67;;;;;;;19.27;99.29;100002.06;1769118;80;21161;-58
2022/08/03 00:57:27;;;;;;;5.75;5.00;;;;;;;19.25;99.34;100001.48;1788327;80;21481;-58
2022/08/03 00:59:58;;;;;;;7.08;5.53;;;;;;;19.27;99.47;99999.83;1788446;80;21022;-58
2022/08/03 01:02:30;;;;;;;6.45;4.87;;;;;;;19.28;99.64;100009.84;1788552;80;21053;-58
2022/08/03 01:04:59;;;;;;;8.63;5.17;;;;;;;19.30;99.63;100001.53;1785951;80;21117;-58
2022/08/03 01:08:01;;;;;;;5.58;5.00;;;;;;;19.31;99.70;100003.20;1772005;79;21036;-59
2022/08/03 01:10:58;;;;;;;6.25;4.95;;;;;;;19.32;99.48;100005.44;1761314;81;21059;-58
2022/08/03 01:13:51;;;;;;;6.35;5.12;;;;;;;19.32;99.48;100003.49;1776858;80;21067;-59
2022/08/03 01:16:33;;;;;;;6.35;5.30;;;;;;;19.27;98.76;99999.28;1784198;80;21066;-59
2022/08/03 01:19:24;;;;;;;8.33;4.85;;;;;;;19.26;98.87;100003.16;1788512;80;21038;-59
2022/08/03 01:22:06;;;;;;;9.60;4.78;;;;;;;19.25;98.69;100005.66;1787864;80;21011;-58
2022/08/03 01:25:04;;;;;;;7.60;5.60;;;;;;;19.22;98.47;100006.18;1788299;80;21061;-58
2022/08/03 01:27:58;;;;;;;8.55;5.00;;;;;;;19.23;98.50;100001.47;1798324;78;21045;-58
2022/08/03 01:30:32;;;;;;;7.22;5.37;;;;;;;19.23;98.73;100007.86;1801717;79;21042;-59
2022/08/03 01:33:07;;;;;;;9.77;6.10;;;;;;;19.23;98.68;100012.02;1796852;79;21042;-58
2022/08/03 01:35:47;;;;;;;6.33;5.20;;;;;;;19.23;98.99;100013.97;1812045;78;21300;-58
2022/08/03 01:38:51;;;;;;;10.60;5.80;;;;;;;19.24;99.11;100016.48;1828713;78;20998;-58
2022/08/03 01:41:24;;;;;;;7.72;5.62;;;;;;;19.26;99.31;100014.83;1829114;78;21281;-59
2022/08/03 01:43:54;;;;;;;9.05;5.10;;;;;;;19.23;99.03;100013.41;1829145;78;21018;-57
2022/08/03 01:46:26;;;;;;;7.92;5.58;;;;;;;19.27;99.37;100017.89;1824496;78;21022;-58
2022/08/03 01:48:56;;;;;;;8.48;5.20;;;;;;;19.26;99.23;100018.44;1829239;78;21066;-59
2022/08/03 01:51:26;;;;;;;7.25;5.12;;;;;;;19.25;98.97;100019.55;1829208;78;21014;-60
2022/08/03 01:53:57;;;;;;;8.40;5.03;;;;;;;19.26;98.87;100025.94;1821068;78;21022;-60
2022/08/03 01:56:26;;;;;;;7.72;5.80;;;;;;;19.23;98.60;100012.58;1788510;80;21446;-59
2022/08/03 01:59:16;;;;;;;8.33;5.50;;;;;;;19.17;98.46;100010.30;1788586;80;21038;-60
2022/08/03 02:01:46;;;;;;;8.15;5.60;;;;;;;19.16;98.58;100009.18;1788450;80;21010;-59
2022/08/03 02:04:18;;;;;;;6.72;5.33;;;;;;;19.14;98.78;100005.28;1784314;80;21022;-58
2022/08/03 02:06:47;;;;;;;10.80;5.87;;;;;;;19.12;98.67;100006.09;1788635;80;21041;-59
2022/08/03 02:09:19;;;;;;;7.55;5.30;;;;;;;19.10;98.75;100004.13;1791155;79;21010;-60
2022/08/03 02:11:48;;;;;;;11.85;5.85;;;;;;;19.10;98.61;100006.07;1766401;81;20979;-59
2022/08/03 02:14:18;;;;;;;8.45;5.95;;;;;;;19.06;98.18;100004.37;1747419;81;21057;-59
2022/08/03 02:16:49;;;;;;;7.20;5.10;;;;;;;19.07;98.50;100012.15;1745381;81;21011;-58
2022/08/03 02:19:19;;;;;;;7.33;5.85;;;;;;;19.07;98.45;100000.48;1753073;80;21054;-58
2022/08/03 02:21:48;;;;;;;8.93;5.08;;;;;;;19.05;98.12;100008.25;1753707;82;21034;-58
2022/08/03 02:24:20;;;;;;;7.95;5.67;;;;;;;19.05;98.17;100010.19;1751736;82;21011;-58
2022/08/03 02:26:50;;;;;;;6.85;5.45;;;;;;;19.03;98.21;100010.45;1738587;80;21592;-59
2022/08/03 02:29:22;;;;;;;11.00;6.17;;;;;;;19.05;98.39;100017.13;1720324;83;21039;-59
2022/08/03 02:31:53;;;;;;;7.50;6.17;;;;;;;19.07;98.55;100017.70;1699763;82;21060;-59
2022/08/03 02:34:24;;;;;;;9.00;5.50;;;;;;;19.07;98.73;100016.31;1746441;81;21022;-59
2022/08/03 02:36:54;;;;;;;8.30;5.30;;;;;;;19.08;98.75;100013.27;1759244;81;21035;-59
2022/08/03 02:39:24;;;;;;;8.45;6.22;;;;;;;19.09;98.73;100014.95;1726337;83;21062;-59
2022/08/03 02:42:00;;;;;;;10.13;6.05;;;;;;;19.08;98.42;100020.22;1751361;82;20999;-59
2022/08/03 02:44:26;;;;;;;9.08;6.12;;;;;;;19.07;98.30;100021.31;1746823;82;21031;-58
2022/08/03 02:47:00;;;;;;;9.15;5.70;;;;;;;19.07;98.35;100025.48;1728652;83;21504;-59
2022/08/03 02:49:29;;;;;;;9.95;5.50;;;;;;;19.08;98.40;100019.38;1728511;83;21361;-59
2022/08/03 02:52:01;;;;;;;9.98;5.72;;;;;;;19.08;98.46;100022.99;1739809;82;21027;-59
2022/08/03 02:54:31;;;;;;;8.35;5.22;;;;;;;19.11;98.57;100021.08;1756502;81;21575;-59
2022/08/03 02:57:00;;;;;;;8.55;5.90;;;;;;;19.10;98.38;100024.95;1737010;81;21076;-59
2022/08/03 02:59:30;;;;;;;7.75;5.58;;;;;;;19.08;98.27;100024.38;1697387;84;21050;-60
2022/08/03 03:02:00;;;;;;;11.05;5.72;;;;;;;19.04;98.28;100021.00;1726538;83;21073;-59
2022/08/03 03:04:29;;;;;;;12.43;6.00;;;;;;;19.04;98.47;100014.91;1726565;83;21034;-59
2022/08/03 03:07:00;;;;;;;11.55;6.17;;;;;;;19.04;98.69;100011.28;1698994;83;21481;-60
2022/08/03 03:09:32;;;;;;;9.85;6.17;;;;;;;19.05;98.62;100013.80;1757084;82;21027;-60
2022/08/03 03:12:04;;;;;;;10.05;5.92;;;;;;;19.05;98.78;100012.96;1757476;81;21019;-59
2022/08/03 03:14:35;;;;;;;9.43;5.85;;;;;;;19.05;98.67;100014.34;1726281;82;21077;-58
2022/08/03 03:17:06;;;;;;;9.05;5.65;;;;;;;19.04;98.53;100018.23;1717476;83;21032;-58
2022/08/03 03:19:35;;;;;;;11.50;6.03;;;;;;;19.04;98.69;100026.01;1735164;83;21031;-59
2022/08/03 03:22:06;;;;;;;9.13;5.87;;;;;;;19.07;98.75;100030.20;1729817;83;21078;-58
2022/08/03 03:24:35;;;;;;;9.98;5.90;;;;;;;19.07;98.57;100027.42;1756464;82;21102;-59
2022/08/03 03:27:05;;;;;;;10.08;6.40;;;;;;;19.07;98.70;100024.09;1702249;83;21126;-59
2022/08/03 03:29:35;;;;;;;9.60;5.83;;;;;;;19.10;98.59;100021.34;1695454;83;20999;-59
2022/08/03 03:32:06;;;;;;;7.83;5.40;;;;;;;19.12;98.59;100021.36;1747368;81;21054;-59
2022/08/03 03:34:38;;;;;;;10.82;5.67;;;;;;;19.13;98.49;100023.59;1719970;83;21070;-58
2022/08/03 03:37:07;;;;;;;7.78;5.85;;;;;;;19.13;98.34;100025.82;1751459;82;21034;-59
2022/08/03 03:39:37;;;;;;;9.75;6.42;;;;;;;19.16;98.38;100021.68;1720116;83;21007;-58
2022/08/03 03:42:07;;;;;;;10.25;5.83;;;;;;;19.17;98.11;100030.30;1751552;82;21010;-58
2022/08/03 03:44:35;;;;;;;8.43;5.60;;;;;;;19.16;97.77;100029.46;1720061;83;21066;-59
2022/08/03 03:47:05;;;;;;;10.03;6.47;;;;;;;19.15;97.56;100031.95;1751019;82;21026;-59
2022/08/03 03:49:36;;;;;;;10.78;6.12;;;;;;;19.14;97.49;100043.32;1753555;82;21081;-59
2022/08/03 03:52:06;;;;;;;9.03;6.25;;;;;;;19.17;97.75;100052.52;1724633;83;21129;-59
2022/08/03 03:54:42;;;;;;;10.82;5.58;;;;;;;19.23;97.74;100048.69;1756102;82;21496;-60
2022/08/03 03:57:11;;;;;;;10.18;5.30;;;;;;;19.22;96.89;100053.95;1705621;83;21068;-60
2022/08/03 03:59:42;;;;;;;7.50;5.47;;;;;;;19.19;96.82;100045.59;1722769;83;20999;-59
2022/08/03 04:02:11;;;;;;;9.95;5.30;;;;;;;19.22;96.94;100056.18;1719818;83;21084;-59
2022/08/03 04:13:09;;;;;;;16.30;8.33;;;;;;;19.30;96.20;100057.64;1749221;82;20987;-61
2022/08/03 04:15:39;;;;;;;8.65;5.55;;;;;;;19.35;96.36;100057.69;1745042;82;21516;-59
2022/08/03 04:18:11;;;;;;;8.93;6.03;;;;;;;19.38;95.98;100056.33;1719833;83;21447;-60
2022/08/03 04:20:41;;;;;;;9.13;5.70;;;;;;;19.39;95.50;100051.05;1722396;83;21022;-59
2022/08/03 04:23:11;;;;;;;8.65;6.15;;;;;;;19.41;95.31;100059.41;1737057;82;21568;-59
2022/08/03 04:25:43;;;;;;;10.50;6.65;;;;;;;19.41;95.19;100060.80;1721249;83;21036;-60
2022/08/03 04:28:12;;;;;;;9.75;5.67;;;;;;;19.43;95.15;100061.92;1731419;81;20993;-60
2022/08/03 04:30:47;;;;;;;7.72;5.62;;;;;;;19.44;94.93;100060.83;1755010;82;21524;-59
2022/08/03 04:33:16;;;;;;;9.45;5.53;;;;;;;19.44;94.73;100067.22;1771876;81;21059;-61
2022/08/03 04:35:48;;;;;;;6.15;5.22;;;;;;;19.43;94.05;100058.59;1772053;81;21447;-60
2022/08/03 04:38:18;;;;;;;11.50;5.58;;;;;;;19.45;94.00;100056.39;1765358;81;20992;-59
2022/08/03 04:40:48;;;;;;;8.63;5.45;;;;;;;19.50;94.25;100062.55;1741691;81;21071;-59
2022/08/03 04:43:16;;;;;;;9.58;4.78;;;;;;;19.56;94.36;100067.95;1772094;81;21093;-61
2022/08/03 04:45:47;;;;;;;9.48;5.37;;;;;;;19.61;93.45;100070.77;1766432;81;21012;-60
2022/08/03 04:48:18;;;;;;;9.30;4.80;;;;;;;19.67;93.36;100071.64;1758649;81;21528;-60
2022/08/03 04:50:48;;;;;;;10.32;5.00;;;;;;;19.72;92.79;100077.80;1767693;81;21055;-58
2022/08/03 04:53:18;;;;;;;7.95;5.33;;;;;;;19.77;92.10;100073.12;1771813;81;21039;-61
2022/08/03 04:55:48;;;;;;;9.30;5.03;;;;;;;19.81;91.78;100066.47;1771927;81;21054;-59
2022/08/03 04:58:17;;;;;;;9.90;4.90;;;;;;;19.87;91.43;100074.58;1771878;81;21019;-60
2022/08/03 05:00:50;;;;;;;7.45;5.03;;;;;;;19.92;91.19;100066.27;1769777;81;21435;-59
2022/08/03 05:03:20;;;;;;;7.08;4.67;;;;;;;19.97;90.60;100073.81;1758747;81;21058;-59
2022/08/03 05:05:52;;;;;;;5.58;4.62;;;;;;;20.00;89.95;100066.88;1759001;81;21455;-61
2022/08/03 05:08:24;;;;;;;7.25;4.95;;;;;;;20.02;89.61;100071.06;1728122;83;21055;-59
2022/08/03 05:10:57;;;;;;;7.47;4.97;;;;;;;20.03;89.35;100062.17;1759183;81;21038;-59
2022/08/03 05:13:27;;;;;;;8.63;5.80;;;;;;;20.04;88.72;100063.84;1729155;83;21451;-60
2022/08/03 05:15:57;;;;;;;9.75;4.90;;;;;;;20.09;89.31;100066.11;1759103;81;21062;-60
2022/08/03 05:18:26;;;;;;;8.78;5.37;;;;;;;20.17;88.92;100074.53;1758750;81;21078;-59
2022/08/03 05:21:00;;;;;;;7.12;5.50;;;;;;;20.23;89.02;100072.06;1758943;81;21075;-59
2022/08/03 05:23:30;;;;;;;9.58;5.30;;;;;;;20.34;88.75;100072.95;1758685;81;21019;-60
2022/08/03 05:26:00;;;;;;;7.40;5.08;;;;;;;20.42;88.23;100067.75;1758714;81;21469;-59
2022/08/03 05:28:30;;;;;;;8.73;5.42;;;;;;;20.54;87.05;100068.36;1759742;81;21050;-60
2022/08/03 05:31:00;;;;;;;11.48;5.47;;;;;;;20.69;87.25;100075.94;1793210;78;21430;-60
2022/08/03 05:33:30;;;;;;;7.47;5.45;;;;;;;20.87;85.90;100076.03;1764036;81;21073;-63
2022/08/03 05:36:02;;;;;;;7.42;5.72;;;;;;;21.09;85.56;100078.05;1808657;79;21038;-59
2022/08/03 05:38:33;;;;;;;7.83;5.08;;;;;;;21.37;85.31;100074.50;1823319;79;21014;-60
2022/08/03 05:41:03;;;;;;;8.20;5.28;;;;;;;21.58;83.40;100083.75;1822759;79;21014;-61
2022/08/03 05:43:34;;;;;;;9.80;5.70;;;;;;;21.65;80.95;100078.73;1819153;79;21018;-59
2022/08/03 05:46:06;;;;;;;6.47;4.87;;;;;;;21.64;80.07;100082.08;1796795;79;21014;-60
2022/08/03 05:48:37;;;;;;;10.98;5.90;;;;;;;21.62;80.60;100077.34;1785215;80;21170;-60
2022/08/03 05:51:09;;;;;;;6.65;5.45;;;;;;;21.63;81.04;100082.36;1785657;80;21037;-59
2022/08/03 05:53:39;;;;;;;7.37;5.58;;;;;;;21.65;81.01;100088.49;1801527;79;21018;-60
2022/08/03 05:56:09;;;;;;;7.92;5.78;;;;;;;21.66;80.15;100092.95;1823532;79;21014;-60
2022/08/03 05:58:45;;;;;;;12.33;5.37;;;;;;;21.66;80.25;100088.77;1822881;79;21043;-60
2022/08/03 06:01:15;;;;;;;12.73;5.25;;;;;;;21.66;80.24;100091.00;1797031;79;21010;-60
2022/08/03 06:03:45;;;;;;;8.08;5.62;;;;;;;21.70;80.49;100093.52;1785532;80;21018;-62
2022/08/03 06:06:14;;;;;;;7.65;5.47;;;;;;;21.71;79.49;100084.03;1785910;80;21014;-60
2022/08/03 06:08:45;;;;;;;10.78;5.55;;;;;;;21.73;80.26;100085.98;1819515;79;20998;-60
2022/08/03 06:11:15;;;;;;;10.48;6.10;;;;;;;21.79;80.54;100094.63;1818189;78;21019;-61
2022/08/03 06:13:45;;;;;;;8.80;5.40;;;;;;;21.76;80.15;100087.38;1823176;79;21157;-61
2022/08/03 06:16:14;;;;;;;9.88;5.65;;;;;;;21.72;78.91;100098.25;1818482;79;21089;-60
2022/08/03 06:18:44;;;;;;;10.28;5.87;;;;;;;21.67;79.15;100102.99;1822613;78;21189;-60
2022/08/03 06:21:15;;;;;;;8.50;6.42;;;;;;;21.63;79.48;100106.89;1809130;79;20982;-60
2022/08/03 06:23:45;;;;;;;8.05;5.30;;;;;;;21.66;79.90;100094.34;1796040;80;21626;-60
2022/08/03 06:26:15;;;;;;;9.48;5.50;;;;;;;21.73;79.57;100092.95;1793935;80;21049;-61
2022/08/03 06:28:45;;;;;;;10.53;5.78;;;;;;;21.88;78.92;100092.67;1765490;80;21504;-60
2022/08/03 06:31:16;;;;;;;8.00;5.80;;;;;;;22.09;78.82;100097.14;1765244;81;21019;-59
2022/08/03 06:33:46;;;;;;;7.75;5.20;;;;;;;22.38;78.70;100091.81;1792972;80;21007;-61
2022/08/03 06:36:17;;;;;;;12.50;5.25;;;;;;;22.79;78.22;100093.93;1775271;80;21462;-60
2022/08/03 06:38:48;;;;;;;6.10;5.03;;;;;;;23.21;74.82;100098.22;1738764;82;21468;-60
2022/08/03 06:41:17;;;;;;;10.58;6.00;;;;;;;23.55;74.05;100094.97;1738606;82;21174;-60
2022/08/03 06:43:47;;;;;;;9.45;5.28;;;;;;;23.94;71.96;100089.89;1738870;82;21030;-61
2022/08/03 06:46:18;;;;;;;8.40;5.40;;;;;;;24.23;69.83;100092.16;1736954;81;21528;-61
2022/08/03 06:48:47;;;;;;;10.00;5.80;;;;;;;24.44;68.93;100091.40;1738809;82;21025;-62
2022/08/03 06:51:17;;;;;;;8.58;5.22;;;;;;;24.67;68.05;100085.52;1746788;82;21058;-62
2022/08/03 06:53:46;;;;;;;10.50;6.20;;;;;;;24.88;66.94;100087.53;1739564;81;21054;-62
2022/08/03 06:56:15;;;;;;;8.93;5.25;;;;;;;25.06;65.61;100091.53;1739044;81;21100;-62
2022/08/03 06:58:46;;;;;;;10.18;5.65;;;;;;;25.29;66.20;100085.02;1739027;82;21022;-61
2022/08/03 07:01:15;;;;;;;11.38;5.62;;;;;;;25.57;64.89;100088.27;1764318;80;21014;-61
2022/08/03 07:03:47;;;;;;;10.53;5.58;;;;;;;25.80;62.81;100092.13;1798920;80;21062;-62
2022/08/03 07:06:18;;;;;;;8.80;5.20;;;;;;;25.89;62.71;100090.86;1765229;81;21046;-61
2022/08/03 07:08:48;;;;;;;9.65;5.45;;;;;;;25.94;62.08;100090.77;1798788;80;21085;-62
2022/08/03 07:11:19;;;;;;;7.00;6.05;;;;;;;26.06;61.98;100088.34;1761609;81;21023;-64
2022/08/03 07:13:49;;;;;;;9.83;5.60;;;;;;;26.24;62.32;100096.44;1780299;80;21046;-61
2022/08/03 07:16:18;;;;;;;10.05;5.75;;;;;;;26.38;60.39;100093.68;1785007;80;21457;-61
2022/08/03 07:18:46;;;;;;;6.65;5.22;;;;;;;26.44;59.38;100096.08;1759925;81;21050;-61
2022/08/03 07:21:16;;;;;;;10.32;5.90;;;;;;;26.38;60.23;100096.48;1768606;80;21041;-62
2022/08/03 07:23:45;;;;;;;10.05;5.83;;;;;;;26.41;60.16;100097.27;1738382;82;21046;-61
2022/08/03 07:26:15;;;;;;;6.12;5.50;;;;;;;26.47;60.08;100099.67;1738666;82;21931;-62
2022/08/03 07:28:45;;;;;;;7.55;5.80;;;;;;;26.62;59.41;100104.16;1734586;82;22205;-61
2022/08/03 07:31:15;;;;;;;8.48;6.05;;;;;;;26.83;59.03;100104.03;1750248;80;21023;-61
2022/08/03 07:33:45;;;;;;;7.87;5.60;;;;;;;26.97;57.75;100101.78;1763926;81;21053;-60
2022/08/03 07:36:15;;;;;;;8.05;5.83;;;;;;;27.07;57.82;100101.02;1787070;79;21438;-60
2022/08/03 07:38:46;;;;;;;8.15;5.58;;;;;;;27.14;58.05;100104.81;1785567;80;21010;-61
2022/08/03 07:41:15;;;;;;;10.63;5.85;;;;;;;27.28;57.51;100099.98;1785536;80;21074;-61
2022/08/03 07:43:45;;;;;;;12.18;6.08;;;;;;;27.40;56.39;100104.52;1785681;80;21379;-60
2022/08/03 07:46:17;;;;;;;9.45;5.97;;;;;;;27.56;56.79;100113.43;1785872;80;21011;-61
2022/08/03 07:48:48;;;;;;;9.68;6.00;;;;;;;27.56;56.79;100113.43;1785610;80;21034;-61
2022/08/03 07:51:18;;;;;;;9.23;5.92;;;;;;;27.72;56.08;100107.72;1787944;80;21268;-61
2022/08/03 07:53:47;;;;;;;7.72;5.45;;;;;;;27.89;55.06;100116.88;1788096;80;21010;-61
2022/08/03 07:56:18;;;;;;;7.00;5.55;;;;;;;27.91;53.95;100120.20;1790595;78;21026;-62
2022/08/03 07:58:49;;;;;;;10.48;5.55;;;;;;;27.86;53.92;100121.73;1752344;82;20980;-60
2022/08/03 08:01:19;;;;;;;11.22;6.17;;;;;;;27.76;54.46;100121.99;1797201;79;21017;-61
2022/08/03 08:03:49;;;;;;;6.47;5.53;;;;;;;27.89;54.11;100134.34;1795896;79;21042;-62
2022/08/03 08:06:20;;;;;;;8.55;5.67;;;;;;;27.89;54.11;100134.34;1822917;79;21014;-60
2022/08/03 08:08:51;;;;;;;6.12;5.53;;;;;;;28.00;54.32;100129.58;1800634;78;21509;-63
2022/08/03 08:11:21;;;;;;;9.30;5.80;;;;;;;28.06;53.57;100128.30;1734521;82;21054;-60
2022/08/03 08:13:50;;;;;;;7.35;5.75;;;;;;;27.97;53.61;100137.27;1774756;80;21060;-61
2022/08/03 08:16:21;;;;;;;9.85;5.67;;;;;;;28.06;53.47;100129.70;1799170;79;21042;-61
2022/08/03 08:18:51;;;;;;;8.80;6.10;;;;;;;28.22;53.55;100137.18;1816674;79;20982;-61
2022/08/03 08:21:20;;;;;;;8.43;5.55;;;;;;;28.42;53.22;100128.79;1781478;79;21014;-62
2022/08/03 08:23:49;;;;;;;9.15;5.95;;;;;;;28.56;52.65;100130.94;1750683;82;21026;-61
2022/08/03 08:26:21;;;;;;;10.05;5.75;;;;;;;28.65;51.91;100132.42;1794650;80;21062;-62
2022/08/03 08:28:51;;;;;;;9.70;5.50;;;;;;;28.58;52.54;100134.84;1760607;81;21058;-61
2022/08/03 08:31:20;;;;;;;7.58;5.62;;;;;;;28.71;51.96;100136.76;1735721;81;21093;-62
2022/08/03 08:33:52;;;;;;;9.15;5.87;;;;;;;28.81;51.49;100145.50;1730786;82;21038;-62
2022/08/03 08:36:24;;;;;;;9.08;6.08;;;;;;;28.86;51.22;100145.39;1727810;82;21117;-63
2022/08/03 08:38:54;;;;;;;9.35;6.50;;;;;;;28.87;51.29;100150.70;1730926;83;20994;-63
2022/08/03 08:41:24;;;;;;;9.15;6.17;;;;;;;28.80;50.98;100146.66;1731635;81;21057;-61
2022/08/03 08:43:55;;;;;;;6.95;5.62;;;;;;;28.61;51.66;100137.88;1730631;82;21066;-62
2022/08/03 08:46:27;;;;;;;9.60;5.92;;;;;;;28.44;52.09;100132.70;1705943;82;21114;-60
2022/08/03 08:48:57;;;;;;;9.85;6.30;;;;;;;28.29;53.14;100142.39;1705902;83;21031;-61
2022/08/03 08:51:36;;;;;;;10.78;6.83;;;;;;;28.31;52.84;100138.67;1705756;84;21102;-62
2022/08/03 08:54:08;;;;;;;9.60;6.80;;;;;;;28.38;52.77;100136.23;1705453;82;21053;-63
2022/08/03 08:56:37;;;;;;;10.13;6.72;;;;;;;28.40;52.62;100141.80;1710857;83;21063;-61
2022/08/03 08:59:07;;;;;;;9.08;6.10;;;;;;;28.24;52.29;100152.39;1754991;82;21478;-62
2022/08/03 09:01:37;;;;;;;11.40;6.75;;;;;;;27.99;53.28;100151.86;1754948;82;21469;-61
2022/08/03 09:04:08;;;;;;;7.67;6.47;;;;;;;27.73;54.02;100150.78;1762351;80;21066;-62
2022/08/03 09:06:38;;;;;;;9.68;6.40;;;;;;;27.52;54.66;100141.95;1782342;80;21111;-62
2022/08/03 09:09:09;;;;;;;9.55;6.12;;;;;;;27.34;55.37;100149.40;1781836;80;21046;-61
2022/08/03 09:11:44;;;;;;;9.30;6.70;;;;;;;27.30;55.86;100151.72;1778318;80;21427;-63
2022/08/03 09:14:15;;;;;;;11.90;8.13;;;;;;;27.41;56.12;100147.56;1778733;80;21058;-62
2022/08/03 09:17:03;;;;;;;9.55;6.78;;;;;;;27.50;55.63;100149.05;1704210;84;21072;-61
2022/08/03 09:19:32;;;;;;;10.35;6.90;;;;;;;27.56;55.28;100144.97;1734953;83;21072;-61
2022/08/03 09:22:16;;;;;;;8.13;6.37;;;;;;;27.56;55.19;100140.17;1735343;83;21050;-61
2022/08/03 09:25:04;;;;;;;9.05;6.15;;;;;;;27.56;55.37;100133.14;1734747;83;21057;-62
2022/08/03 09:27:45;;;;;;;8.98;6.33;;;;;;;27.58;55.51;100131.41;1728692;83;21050;-64
2022/08/03 09:30:15;;;;;;;10.18;6.67;;;;;;;27.59;55.50;100149.97;1703621;83;21069;-62
2022/08/03 09:32:47;;;;;;;10.55;6.37;;;;;;;27.49;55.31;100149.63;1702635;84;21489;-62
2022/08/03 09:35:18;;;;;;;9.60;7.20;;;;;;;27.29;55.46;100138.23;1728584;83;20995;-63
2022/08/03 09:38:10;;;;;;;11.78;6.55;;;;;;;27.08;56.22;100152.48;1739659;81;21404;-61
2022/08/03 09:40:41;;;;;;;7.00;6.22;;;;;;;26.90;56.81;100151.98;1674402;85;21072;-61
2022/08/03 09:43:11;;;;;;;10.90;6.60;;;;;;;26.67;57.63;100161.70;1704290;83;21003;-62
2022/08/03 09:45:41;;;;;;;17.42;7.20;;;;;;;26.53;58.24;100162.23;1755333;81;21038;-63
2022/08/03 09:48:30;;;;;;;11.68;6.62;;;;;;;26.40;58.61;100153.20;1728539;83;21068;-61
2022/08/03 09:51:02;;;;;;;8.08;6.60;;;;;;;26.28;59.03;100150.02;1728341;83;21030;-62
2022/08/03 09:53:43;;;;;;;11.90;7.22;;;;;;;26.17;59.44;100162.84;1727338;83;21066;-60
2022/08/03 09:56:15;;;;;;;7.72;6.08;;;;;;;26.11;64.10;100168.28;1727241;83;21026;-60
2022/08/03 09:58:46;;;;;;;8.38;5.37;;;;;;;25.83;67.70;100178.53;1724505;83;21029;-61
2022/08/03 10:01:16;;;;;;;10.15;6.20;;;;;;;25.53;68.76;100185.41;1724573;83;21039;-61
2022/08/03 10:03:52;;;;;;;8.43;6.17;;;;;;;25.26;70.16;100185.20;1753163;81;21168;-63
2022/08/03 10:06:25;;;;;;;10.15;6.12;;;;;;;25.05;72.62;100183.78;1703555;83;21465;-61
2022/08/03 10:09:15;;;;;;;8.80;6.45;;;;;;;24.80;73.62;100184.32;1728414;83;21505;-60
2022/08/03 10:11:46;;;;;;;11.93;6.40;;;;;;;24.64;75.38;100179.42;1728331;83;21630;-61
2022/08/03 10:14:18;;;;;;;9.65;6.83;;;;;;;24.46;76.23;100175.13;1728532;83;21082;-62
2022/08/03 10:16:49;;;;;;;9.33;6.90;;;;;;;24.31;76.10;100180.31;1729396;81;21022;-61
2022/08/03 10:19:19;;;;;;;11.75;6.78;;;;;;;24.25;77.65;100186.49;1728472;83;20994;-61
2022/08/03 10:21:51;;;;;;;12.55;6.85;;;;;;;24.19;78.37;100185.44;1707186;83;21104;-62
2022/08/03 10:24:27;;;;;;;9.05;7.05;;;;;;;24.14;78.62;100185.48;1758420;81;21082;-61
2022/08/03 10:27:02;;;;;;;9.65;6.10;;;;;;;24.11;79.43;100174.30;1735277;81;21027;-62
2022/08/03 10:29:37;;;;;;;8.95;6.97;;;;;;;24.12;78.91;100183.53;1756371;81;21516;-61
2022/08/03 10:32:36;;;;;;;11.90;7.28;;;;;;;24.09;78.86;100174.32;1754315;81;21054;-62
2022/08/03 10:35:13;;;;;;;15.50;7.45;;;;;;;24.04;79.68;100173.20;1753150;82;21043;-61
2022/08/03 10:37:53;;;;;;;8.50;6.60;;;;;;;24.03;80.15;100171.53;1795156;80;21078;-60
2022/08/03 10:40:27;;;;;;;12.53;7.12;;;;;;;24.05;80.57;100160.05;1751361;81;21072;-60
2022/08/03 10:43:10;;;;;;;8.78;6.42;;;;;;;24.13;80.20;100155.81;1724839;83;21062;-62
2022/08/03 10:45:41;;;;;;;10.43;6.65;;;;;;;24.21;80.47;100156.02;1709177;83;22088;-61
2022/08/03 10:48:11;;;;;;;10.03;7.12;;;;;;;24.32;79.87;100139.98;1729889;83;21028;-62
2022/08/03 10:50:42;;;;;;;13.83;6.97;;;;;;;24.43;78.75;100145.75;1729826;82;21072;-61
2022/08/03 10:53:11;;;;;;;9.03;6.37;;;;;;;24.53;77.26;100142.84;1722997;83;21103;-61
2022/08/03 10:58:51;;;;;;;9.93;6.53;;;;;;;24.77;75.27;100131.67;1749636;80;21011;-65
2022/08/03 11:01:52;;;;;;;12.53;7.62;;;;;;;24.85;74.74;100124.00;1760078;81;21030;-61
2022/08/03 11:04:25;;;;;;;7.67;6.67;;;;;;;24.90;73.20;100125.34;1758429;81;21067;-61
2022/08/03 11:07:22;;;;;;;8.73;6.12;;;;;;;24.98;72.78;100129.48;1795288;80;21303;-61
2022/08/03 11:09:53;;;;;;;9.58;6.05;;;;;;;25.02;72.29;100121.30;1781542;80;21082;-61
2022/08/03 11:12:31;;;;;;;10.58;6.35;;;;;;;25.08;72.18;100119.53;1795386;80;21046;-63
2022/08/03 11:15:04;;;;;;;11.08;6.35;;;;;;;25.07;70.15;100122.07;1795594;80;21034;-62
2022/08/03 11:17:34;;;;;;;10.10;6.92;;;;;;;25.05;70.53;100127.14;1795533;79;21010;-61
2022/08/03 11:20:06;;;;;;;10.28;6.95;;;;;;;25.08;69.58;100127.11;1786192;80;21034;-62
2022/08/03 11:22:53;;;;;;;9.75;6.75;;;;;;;25.08;70.06;100125.70;1763958;81;21027;-60
2022/08/03 11:25:24;;;;;;;8.13;5.95;;;;;;;25.07;72.57;100122.07;1763789;81;21024;-62
2022/08/03 11:28:27;;;;;;;9.30;6.85;;;;;;;25.00;72.78;100116.56;1759208;81;21006;-61
2022/08/03 11:31:17;;;;;;;6.83;6.12;;;;;;;24.89;74.03;100122.27;1768253;81;21097;-60
2022/08/03 11:34:10;;;;;;;9.35;6.25;;;;;;;24.82;74.81;100118.99;1712456;82;21105;-60
2022/08/03 11:37:17;;;;;;;8.18;6.25;;;;;;;24.80;75.45;100117.63;1730796;83;21454;-60
2022/08/03 11:39:49;;;;;;;8.63;6.63;;;;;;;24.80;74.38;100117.63;1738859;82;21466;-61
2022/08/03 11:42:29;;;;;;;11.15;6.50;;;;;;;24.82;75.22;100111.16;1738567;82;21044;-61
2022/08/03 11:45:00;;;;;;;9.38;6.03;;;;;;;24.88;74.48;100111.36;1738571;82;21004;-61
2022/08/03 11:47:30;;;;;;;11.12;6.20;;;;;;;24.98;74.13;100109.02;1738421;82;21103;-60
2022/08/03 11:50:00;;;;;;;10.55;6.37;;;;;;;25.07;71.34;100109.45;1738807;82;21000;-62
2022/08/03 11:52:38;;;;;;;8.60;6.45;;;;;;;25.13;70.95;100108.25;1738653;82;21285;-62
2022/08/03 11:55:10;;;;;;;9.88;6.53;;;;;;;25.18;69.50;100091.92;1739383;82;20996;-62
2022/08/03 11:57:49;;;;;;;10.55;7.12;;;;;;;25.24;69.51;100096.31;1738001;82;20996;-61
2022/08/03 12:00:31;;;;;;;8.95;6.05;;;;;;;25.29;69.39;100106.89;1734630;82;21059;-62